Time;durP1;ratioP1;P1;durP2;ratioP2;P2;SDS_P1;SDS_P2;PMS_P1;PMS_P2;Temp;Humidity;BMP_temperature;BMP_pressure;BME280_temperature;BME280_humidity;BME280_pressure;Samples;Min_cycle;Max_cycle;Signal;HPM_P1;HPM_P2
2022/09/07 00:01:09;;;;;;;;;;;20.10;99.90;;;;;;4958231;28;19996;-78
2022/09/07 00:03:36;;;;;;;;;;;20.10;99.90;;;;;;4950711;28;19953;-78
2022/09/07 00:06:06;;;;;;;;;;;20.00;99.90;;;;;;4938628;28;19957;-78
2022/09/07 00:08:37;;;;;;;;;;;20.00;99.90;;;;;;4951197;28;19978;-78
2022/09/07 00:11:06;;;;;;;;;;;20.00;99.90;;;;;;4953544;28;19926;-78
2022/09/07 00:13:34;;;;;;;;;;;20.00;99.90;;;;;;4951265;28;19933;-78
2022/09/07 00:16:04;;;;;;;;;;;20.00;99.90;;;;;;4933124;28;19956;-78
2022/09/07 00:18:34;;;;;;;;;;;20.00;99.90;;;;;;4950918;28;19938;-77
2022/09/07 00:21:02;;;;;;;;;;;19.90;99.90;;;;;;4954102;28;19937;-78
2022/09/07 00:23:30;;;;;;;;;;;19.90;99.90;;;;;;4953111;28;19935;-78
2022/09/07 00:26:03;;;;;;;;;;;19.90;99.90;;;;;;4952403;28;20365;-78
2022/09/07 00:28:33;;;;;;;;;;;19.90;99.90;;;;;;4948154;28;19974;-79
2022/09/07 00:31:00;;;;;;;;;;;19.90;99.90;;;;;;4938381;28;19949;-78
2022/09/07 00:33:36;;;;;;;;;;;19.90;99.90;;;;;;4929763;28;19962;-78
2022/09/07 00:36:03;;;;;;;;;;;19.90;99.90;;;;;;4952292;28;19934;-78
2022/09/07 00:38:30;;;;;;;;;;;19.90;99.90;;;;;;4951732;28;19934;-78
2022/09/07 00:40:57;;;;;;;;;;;19.80;99.90;;;;;;4942469;28;19930;-78
2022/09/07 00:43:33;;;;;;;;;;;19.80;99.90;;;;;;4937839;28;19934;-78
2022/09/07 00:46:01;;;;;;;;;;;19.80;99.90;;;;;;4954223;28;19927;-78
2022/09/07 00:48:31;;;;;;;;;;;19.80;99.90;;;;;;4950638;28;20023;-78
2022/09/07 00:50:59;;;;;;;;;;;19.80;99.90;;;;;;4946873;28;19930;-78
2022/09/07 00:53:28;;;;;;;;;;;19.80;99.90;;;;;;4929437;28;19930;-78
2022/09/07 00:55:56;;;;;;;;;;;19.70;99.90;;;;;;4952338;28;19933;-78
2022/09/07 00:58:23;;;;;;;;;;;19.70;99.90;;;;;;4947812;28;19926;-78
2022/09/07 01:00:52;;;;;;;;;;;19.70;99.90;;;;;;4950704;28;19934;-78
2022/09/07 01:03:20;;;;;;;;;;;19.70;99.90;;;;;;4933786;28;19935;-78
2022/09/07 01:05:49;;;;;;;;;;;19.70;99.90;;;;;;4936992;28;20022;-78
2022/09/07 01:08:16;;;;;;;;;;;19.70;99.90;;;;;;4951741;28;19941;-78
2022/09/07 01:10:45;;;;;;;;;;;19.70;99.90;;;;;;4949690;28;19930;-78
2022/09/07 01:13:13;;;;;;;;;;;19.70;99.90;;;;;;4937381;28;19961;-78
2022/09/07 01:15:43;;;;;;;;;;;19.60;99.90;;;;;;4932841;28;19949;-78
2022/09/07 01:18:26;;;;;;;;;;;19.60;99.90;;;;;;4951178;28;19974;-78
2022/09/07 01:21:00;;;;;;;;;;;19.60;99.90;;;;;;4955960;28;19933;-78
2022/09/07 01:23:58;;;;;;;;;;;19.60;99.90;;;;;;4949018;28;19934;-78
2022/09/07 01:26:34;;;;;;;;;;;19.60;99.90;;;;;;4955938;28;19933;-78
2022/09/07 01:29:04;;;;;;;;;;;19.60;99.90;;;;;;4955631;28;19934;-77
2022/09/07 01:31:42;;;;;;;;;;;19.50;99.90;;;;;;4935415;28;19972;-78
2022/09/07 01:34:11;;;;;;;;;;;19.50;99.90;;;;;;4945629;28;19926;-78
2022/09/07 01:36:45;;;;;;;;;;;19.50;99.90;;;;;;4959643;28;19973;-78
2022/09/07 01:39:12;;;;;;;;;;;19.50;99.90;;;;;;4946328;28;20357;-79
2022/09/07 01:41:42;;;;;;;;;;;19.50;99.90;;;;;;4957154;28;20540;-78
2022/09/07 01:44:15;;;;;;;;;;;19.50;99.90;;;;;;4959170;28;19940;-78
2022/09/07 01:46:44;;;;;;;;;;;19.50;99.90;;;;;;4943794;28;19941;-78
2022/09/07 01:49:17;;;;;;;;;;;19.50;99.90;;;;;;4960035;28;19927;-78
2022/09/07 01:51:47;;;;;;;;;;;19.50;99.90;;;;;;4949260;28;19945;-78
2022/09/07 01:54:16;;;;;;;;;;;19.40;99.90;;;;;;4957473;28;19934;-79
2022/09/07 01:56:47;;;;;;;;;;;19.40;99.90;;;;;;4947630;28;19930;-78
2022/09/07 01:59:18;;;;;;;;;;;19.40;99.90;;;;;;4931355;28;19930;-78
2022/09/07 02:01:48;;;;;;;;;;;19.40;99.90;;;;;;4960801;28;19926;-78
2022/09/07 02:04:17;;;;;;;;;;;19.40;99.90;;;;;;4943937;28;19926;-78
2022/09/07 02:06:47;;;;;;;;;;;19.40;99.90;;;;;;4959720;28;19933;-78
2022/09/07 02:09:15;;;;;;;;;;;19.40;99.90;;;;;;4959296;28;19941;-78
2022/09/07 02:11:43;;;;;;;;;;;19.30;99.90;;;;;;4959992;28;19941;-78
2022/09/07 02:14:14;;;;;;;;;;;19.30;99.90;;;;;;4957460;28;19937;-78
2022/09/07 02:16:48;;;;;;;;;;;19.30;99.90;;;;;;4941716;28;20325;-78
2022/09/07 02:19:17;;;;;;;;;;;19.30;99.90;;;;;;4957950;28;19935;-78
2022/09/07 02:21:46;;;;;;;;;;;19.30;99.90;;;;;;4941128;28;19926;-78
2022/09/07 02:24:18;;;;;;;;;;;19.30;99.90;;;;;;4939885;28;19942;-78
2022/09/07 02:26:48;;;;;;;;;;;19.30;99.90;;;;;;4957546;28;19935;-78
2022/09/07 02:29:15;;;;;;;;;;;19.30;99.90;;;;;;4946473;28;19932;-78
2022/09/07 02:31:43;;;;;;;;;;;19.20;99.90;;;;;;4957245;28;19936;-78
2022/09/07 02:34:10;;;;;;;;;;;19.20;99.90;;;;;;4959962;28;19938;-78
2022/09/07 02:36:44;;;;;;;;;;;19.20;99.90;;;;;;4953612;28;20325;-78
2022/09/07 02:39:14;;;;;;;;;;;19.20;99.90;;;;;;4954001;28;19926;-78
2022/09/07 02:41:42;;;;;;;;;;;19.20;99.90;;;;;;4958796;28;19930;-78
2022/09/07 02:44:11;;;;;;;;;;;19.20;99.90;;;;;;4962204;28;20423;-78
2022/09/07 02:46:45;;;;;;;;;;;19.20;99.90;;;;;;5023587;23;19934;-79
2022/09/07 03:01:40;;;;;;;;;;;19.10;99.90;;;;;;4935342;28;19928;-78
2022/09/07 03:06:47;;;;;;;;;;;19.10;99.90;;;;;;4957492;28;19941;-78
2022/09/07 03:09:22;;;;;;;;;;;19.10;99.90;;;;;;4966296;28;19953;-78
2022/09/07 03:11:50;;;;;;;;;;;19.10;99.90;;;;;;4949886;28;19932;-78
2022/09/07 03:14:18;;;;;;;;;;;19.10;99.90;;;;;;4960212;28;19949;-79
2022/09/07 03:16:51;;;;;;;;;;;19.10;99.90;;;;;;4962549;28;20005;-79
2022/09/07 03:19:18;;;;;;;;;;;19.00;99.90;;;;;;4960270;28;19942;-78
2022/09/07 03:21:48;;;;;;;;;;;19.00;99.90;;;;;;4948939;28;19926;-78
2022/09/07 03:24:15;;;;;;;;;;;19.00;99.90;;;;;;4962585;28;19941;-78
2022/09/07 03:26:44;;;;;;;;;;;19.00;99.90;;;;;;4964880;28;19926;-78
2022/09/07 03:29:11;;;;;;;;;;;19.00;99.90;;;;;;4961927;28;20029;-78
2022/09/07 03:31:38;;;;;;;;;;;19.00;99.90;;;;;;4960864;28;20364;-78
2022/09/07 03:34:06;;;;;;;;;;;19.00;99.90;;;;;;4966053;28;20016;-78
2022/09/07 03:36:33;;;;;;;;;;;19.00;99.90;;;;;;4951375;28;19926;-78
2022/09/07 03:39:03;;;;;;;;;;;19.00;99.90;;;;;;4962907;28;20371;-78
2022/09/07 03:41:30;;;;;;;;;;;19.00;99.90;;;;;;4947181;28;19930;-78
2022/09/07 03:44:01;;;;;;;;;;;19.00;99.90;;;;;;5043820;23;20012;-78
2022/09/07 03:46:32;;;;;;;;;;;19.00;99.90;;;;;;5042051;23;19930;-78
2022/09/07 03:48:59;;;;;;;;;;;18.90;99.90;;;;;;4960801;28;19985;-78
2022/09/07 03:58:52;;;;;;;;;;;18.90;99.90;;;;;;4867883;29;20479;-80
2022/09/07 04:01:22;;;;;;;;;;;18.90;99.90;;;;;;4879725;29;19931;-78
2022/09/07 04:03:50;;;;;;;;;;;18.90;99.90;;;;;;4937182;28;20304;-78
2022/09/07 04:06:33;;;;;;;;;;;18.80;99.90;;;;;;4965131;28;19926;-79
2022/09/07 04:09:04;;;;;;;;;;;18.90;99.90;;;;;;4963761;28;19982;-78
2022/09/07 04:11:41;;;;;;;;;;;18.90;99.90;;;;;;5102859;27;19923;-80
2022/09/07 04:14:08;;;;;;;;;;;18.80;99.90;;;;;;5095285;28;19929;-78
2022/09/07 04:16:35;;;;;;;;;;;18.80;99.90;;;;;;5100478;28;19946;-79
2022/09/07 04:19:02;;;;;;;;;;;18.80;99.90;;;;;;5098829;28;19925;-80
2022/09/07 04:21:31;;;;;;;;;;;18.80;99.90;;;;;;5098394;28;19932;-80
2022/09/07 04:23:58;;;;;;;;;;;18.80;99.90;;;;;;5099518;28;19936;-79
2022/09/07 04:26:27;;;;;;;;;;;18.80;99.90;;;;;;5097250;28;20020;-80
2022/09/07 04:28:55;;;;;;;;;;;18.80;99.90;;;;;;5101187;28;19924;-80
2022/09/07 04:31:23;;;;;;;;;;;18.80;99.90;;;;;;5094489;28;19928;-80
2022/09/07 04:33:55;;;;;;;;;;;18.80;99.90;;;;;;5099809;28;19936;-79
2022/09/07 04:36:24;;;;;;;;;;;18.80;99.90;;;;;;5103325;27;19928;-77
2022/09/07 04:38:54;;;;;;;;;;;18.70;99.90;;;;;;5096687;28;20042;-79
2022/09/07 04:41:37;;;;;;;;;;;18.80;99.90;;;;;;5101936;28;19946;-78
2022/09/07 04:44:06;;;;;;;;;;;18.70;99.90;;;;;;5098410;28;20010;-78
2022/09/07 04:46:34;;;;;;;;;;;18.70;99.90;;;;;;5100482;28;19924;-79
2022/09/07 04:49:02;;;;;;;;;;;18.70;99.90;;;;;;5102881;28;19928;-79
2022/09/07 04:51:30;;;;;;;;;;;18.70;99.90;;;;;;5093051;28;19928;-78
2022/09/07 04:53:58;;;;;;;;;;;18.70;99.90;;;;;;5098021;28;20275;-78
2022/09/07 04:56:25;;;;;;;;;;;18.70;99.90;;;;;;5096300;28;20402;-78
2022/09/07 04:58:52;;;;;;;;;;;18.70;99.90;;;;;;5094913;27;19932;-78
2022/09/07 05:01:24;;;;;;;;;;;18.70;99.90;;;;;;5099658;28;19964;-78
2022/09/07 05:03:55;;;;;;;;;;;18.70;99.90;;;;;;5095109;28;20018;-78
2022/09/07 05:06:25;;;;;;;;;;;18.70;99.90;;;;;;5095899;28;20458;-78
2022/09/07 05:08:53;;;;;;;;;;;18.70;99.90;;;;;;5097882;28;19932;-78
2022/09/07 05:11:21;;;;;;;;;;;18.70;99.90;;;;;;5095295;28;19928;-78
2022/09/07 05:13:48;;;;;;;;;;;18.70;99.90;;;;;;5102405;28;19924;-78
2022/09/07 05:16:23;;;;;;;;;;;18.70;99.90;;;;;;5093571;28;19924;-78
2022/09/07 05:18:52;;;;;;;;;;;18.70;99.90;;;;;;5094153;28;19932;-78
2022/09/07 05:21:21;;;;;;;;;;;18.70;99.90;;;;;;5093772;28;19974;-78
2022/09/07 05:23:51;;;;;;;;;;;18.70;99.90;;;;;;5090341;28;19988;-78
2022/09/07 05:26:19;;;;;;;;;;;18.70;99.90;;;;;;5081750;28;20003;-79
2022/09/07 05:28:46;;;;;;;;;;;18.70;99.90;;;;;;5084550;28;19981;-78
2022/09/07 05:31:15;;;;;;;;;;;18.60;99.90;;;;;;5099029;27;19932;-77
2022/09/07 05:33:45;;;;;;;;;;;18.60;99.90;;;;;;5079065;28;19948;-79
2022/09/07 05:36:14;;;;;;;;;;;18.60;99.90;;;;;;5088672;28;19978;-78
2022/09/07 05:38:48;;;;;;;;;;;18.60;99.90;;;;;;5086520;28;20007;-78
2022/09/07 05:41:19;;;;;;;;;;;18.60;99.90;;;;;;5080983;28;19925;-78
2022/09/07 05:43:47;;;;;;;;;;;18.60;99.90;;;;;;5089760;28;20018;-78
2022/09/07 05:46:14;;;;;;;;;;;18.60;99.90;;;;;;5087774;28;19924;-78
2022/09/07 05:48:42;;;;;;;;;;;18.60;99.90;;;;;;5082034;28;19950;-78
2022/09/07 05:51:15;;;;;;;;;;;18.60;99.90;;;;;;5089040;28;19932;-78
2022/09/07 05:53:55;;;;;;;;;;;18.60;99.90;;;;;;5091552;28;19928;-78
2022/09/07 05:56:23;;;;;;;;;;;18.60;99.90;;;;;;5091695;28;19932;-78
2022/09/07 05:58:53;;;;;;;;;;;18.60;99.90;;;;;;5081290;28;19928;-78
2022/09/07 06:01:20;;;;;;;;;;;18.50;99.90;;;;;;5082966;28;19995;-78
2022/09/07 06:03:47;;;;;;;;;;;18.50;99.90;;;;;;5081840;28;19925;-78
2022/09/07 06:06:16;;;;;;;;;;;18.60;99.90;;;;;;5080162;28;19932;-78
2022/09/07 06:08:44;;;;;;;;;;;18.50;99.90;;;;;;5086908;28;19932;-79
2022/09/07 06:11:14;;;;;;;;;;;18.50;99.90;;;;;;5078813;28;19939;-79
2022/09/07 06:13:55;;;;;;;;;;;18.50;99.90;;;;;;5080641;28;20023;-78
2022/09/07 06:16:31;;;;;;;;;;;18.50;99.90;;;;;;5084508;28;19930;-79
2022/09/07 06:18:59;;;;;;;;;;;18.50;99.90;;;;;;5076404;28;20347;-79
2022/09/07 06:21:26;;;;;;;;;;;18.50;99.90;;;;;;5080110;28;19928;-78
2022/09/07 06:23:53;;;;;;;;;;;18.50;99.90;;;;;;5077964;28;20293;-78
2022/09/07 06:26:21;;;;;;;;;;;18.50;99.90;;;;;;5087667;28;20054;-79
2022/09/07 06:28:49;;;;;;;;;;;18.50;99.90;;;;;;5088111;28;19924;-78
2022/09/07 06:31:17;;;;;;;;;;;18.40;99.90;;;;;;5082341;28;20377;-79
2022/09/07 06:33:44;;;;;;;;;;;18.50;99.90;;;;;;5084880;28;19935;-79
2022/09/07 06:36:12;;;;;;;;;;;18.50;99.90;;;;;;5084067;28;20399;-78
2022/09/07 06:38:40;;;;;;;;;;;18.40;99.90;;;;;;5081135;28;19924;-79
2022/09/07 06:41:22;;;;;;;;;;;18.40;99.90;;;;;;5083515;28;20476;-78
2022/09/07 06:43:56;;;;;;;;;;;18.40;99.90;;;;;;5080736;28;19924;-79
2022/09/07 06:46:24;;;;;;;;;;;18.40;99.90;;;;;;5088620;28;19924;-79
2022/09/07 06:51:39;;;;;;;;;;;18.40;99.90;;;;;;5079841;28;20023;-79
2022/09/07 06:54:09;;;;;;;;;;;18.40;99.90;;;;;;5082852;28;19925;-79
2022/09/07 06:56:39;;;;;;;;;;;18.40;99.90;;;;;;5095703;28;19927;-79
2022/09/07 06:59:08;;;;;;;;;;;18.40;99.90;;;;;;5086584;28;19967;-79
2022/09/07 07:01:35;;;;;;;;;;;18.40;99.90;;;;;;5086047;28;19935;-79
2022/09/07 07:04:03;;;;;;;;;;;18.40;99.90;;;;;;5087112;28;20031;-80
2022/09/07 07:06:34;;;;;;;;;;;18.50;99.90;;;;;;5085481;28;20023;-79
2022/09/07 07:09:01;;;;;;;;;;;18.40;99.90;;;;;;5082022;28;20373;-79
2022/09/07 07:11:29;;;;;;;;;;;18.40;99.90;;;;;;5086701;28;19928;-79
2022/09/07 07:13:56;;;;;;;;;;;18.40;99.90;;;;;;5080753;28;19924;-79
2022/09/07 07:16:25;;;;;;;;;;;18.40;99.90;;;;;;5086420;28;20606;-79
2022/09/07 07:18:55;;;;;;;;;;;18.40;99.90;;;;;;5080199;28;19940;-79
2022/09/07 07:21:25;;;;;;;;;;;18.40;99.90;;;;;;5078592;28;19928;-79
2022/09/07 07:23:55;;;;;;;;;;;18.40;99.90;;;;;;5089828;28;20383;-79
2022/09/07 07:26:47;;;;;;;;;;;18.40;99.90;;;;;;5087585;28;19924;-79
2022/09/07 07:29:14;;;;;;;;;;;18.40;99.90;;;;;;5080687;28;19951;-79
2022/09/07 07:31:46;;;;;;;;;;;18.50;99.90;;;;;;5089285;28;19933;-79
2022/09/07 07:34:14;;;;;;;;;;;18.40;99.90;;;;;;5081284;28;19993;-79
2022/09/07 07:36:41;;;;;;;;;;;18.40;99.90;;;;;;5087968;28;19971;-80
2022/09/07 07:39:09;;;;;;;;;;;18.40;99.90;;;;;;5081540;28;19935;-79
2022/09/07 07:41:37;;;;;;;;;;;18.40;99.90;;;;;;5078184;28;19925;-79
2022/09/07 07:44:04;;;;;;;;;;;18.40;99.90;;;;;;5086953;28;19924;-79
2022/09/07 07:46:31;;;;;;;;;;;18.40;99.90;;;;;;5087127;28;19924;-80
2022/09/07 07:49:00;;;;;;;;;;;18.40;99.90;;;;;;5086873;28;19951;-79
2022/09/07 07:51:27;;;;;;;;;;;18.50;99.90;;;;;;5083689;28;19935;-80
2022/09/07 07:53:54;;;;;;;;;;;18.50;99.90;;;;;;5077062;28;19925;-79
2022/09/07 07:56:21;;;;;;;;;;;18.50;99.90;;;;;;5096681;28;19984;-79
2022/09/07 08:02:17;;;;;;;;;;;18.50;99.90;;;;;;5084758;28;19944;-80
2022/09/07 08:04:48;;;;;;;;;;;18.50;99.90;;;;;;5077231;28;19970;-80
2022/09/07 08:07:19;;;;;;;;;;;18.50;99.90;;;;;;5084330;28;20002;-79
2022/09/07 08:09:50;;;;;;;;;;;18.50;99.90;;;;;;5085657;28;19971;-80
2022/09/07 08:12:18;;;;;;;;;;;18.40;99.90;;;;;;5091644;28;19975;-79
2022/09/07 08:14:46;;;;;;;;;;;18.50;99.90;;;;;;5077194;28;19947;-79
2022/09/07 08:17:14;;;;;;;;;;;18.50;99.90;;;;;;5073660;28;19928;-78
2022/09/07 08:19:41;;;;;;;;;;;18.50;99.90;;;;;;5075978;28;19928;-79
2022/09/07 08:22:11;;;;;;;;;;;18.50;99.90;;;;;;5064744;28;20390;-78
2022/09/07 08:24:38;;;;;;;;;;;18.50;99.90;;;;;;5084138;28;19928;-79
2022/09/07 08:27:05;;;;;;;;;;;18.50;99.90;;;;;;5075156;28;19997;-80
2022/09/07 08:29:32;;;;;;;;;;;18.50;99.90;;;;;;5079584;28;20317;-77
2022/09/07 08:31:58;;;;;;;;;;;18.50;99.90;;;;;;5074218;28;19928;-79
2022/09/07 08:34:25;;;;;;;;;;;18.60;99.90;;;;;;5080811;28;19939;-79
2022/09/07 08:36:53;;;;;;;;;;;18.60;99.90;;;;;;5079084;28;21552;-79
2022/09/07 08:39:24;;;;;;;;;;;18.60;99.90;;;;;;5075293;28;20281;-79
2022/09/07 08:42:08;;;;;;;;;;;18.60;99.90;;;;;;5076328;28;19928;-79
2022/09/07 08:44:38;;;;;;;;;;;18.60;99.90;;;;;;5091831;28;19931;-80
2022/09/07 08:47:09;;;;;;;;;;;18.70;99.90;;;;;;5089098;28;20368;-80
2022/09/07 08:49:42;;;;;;;;;;;18.70;99.90;;;;;;5088721;28;19966;-80
2022/09/07 08:52:11;;;;;;;;;;;18.70;99.90;;;;;;5090562;28;20019;-80
2022/09/07 08:54:43;;;;;;;;;;;18.70;99.90;;;;;;5089526;28;19924;-79
2022/09/07 08:57:10;;;;;;;;;;;18.70;99.90;;;;;;5095352;28;19947;-80
2022/09/07 08:59:40;;;;;;;;;;;18.70;99.90;;;;;;5093631;28;20368;-80
2022/09/07 09:02:10;;;;;;;;;;;18.70;99.90;;;;;;5103527;28;19932;-79
2022/09/07 09:04:37;;;;;;;;;;;18.70;99.90;;;;;;5095638;28;22742;-80
2022/09/07 09:07:13;;;;;;;;;;;18.70;99.90;;;;;;5093573;28;19951;-80
2022/09/07 09:09:46;;;;;;;;;;;18.70;99.90;;;;;;5096069;28;19966;-80
2022/09/07 09:12:17;;;;;;;;;;;18.80;99.90;;;;;;5100901;28;19931;-79
2022/09/07 09:14:52;;;;;;;;;;;18.80;99.90;;;;;;5093477;28;19963;-79
2022/09/07 09:17:24;;;;;;;;;;;18.80;99.90;;;;;;5094670;28;19927;-79
2022/09/07 09:19:56;;;;;;;;;;;18.80;99.90;;;;;;5095289;28;20334;-80
2022/09/07 09:22:27;;;;;;;;;;;18.80;99.90;;;;;;5097524;28;19932;-80
2022/09/07 09:25:01;;;;;;;;;;;18.80;99.90;;;;;;5092870;28;20441;-80
2022/09/07 09:27:28;;;;;;;;;;;18.90;99.90;;;;;;5087126;28;20317;-79
2022/09/07 09:29:55;;;;;;;;;;;18.90;99.90;;;;;;5093006;28;19935;-80
2022/09/07 09:32:32;;;;;;;;;;;18.90;99.90;;;;;;5097297;28;19928;-80
2022/09/07 09:35:05;;;;;;;;;;;18.90;99.90;;;;;;5092551;28;19924;-80
2022/09/07 09:37:35;;;;;;;;;;;18.90;99.90;;;;;;5092584;28;20466;-80
2022/09/07 09:40:05;;;;;;;;;;;18.90;99.90;;;;;;5103350;28;19950;-80
2022/09/07 09:42:34;;;;;;;;;;;18.90;99.90;;;;;;5092538;28;19999;-80
2022/09/07 09:54:25;;;;;;;;;;;19.00;99.90;;;;;;5646693;23;19925;-80
2022/09/07 10:13:20;;;;;;;;;;;19.10;99.90;;;;;;5892399;23;19925;-80
2022/09/07 10:15:51;;;;;;;;;;;19.20;99.90;;;;;;5024203;28;19949;-80
2022/09/07 10:24:40;;;;;;;;;;;19.20;99.90;;;;;;5004693;28;20431;-81
2022/09/07 10:27:19;;;;;;;;;;;19.20;99.90;;;;;;5004991;28;19926;-81
2022/09/07 10:29:50;;;;;;;;;;;19.30;99.90;;;;;;4971756;28;19934;-81
2022/09/07 10:42:22;;;;;;;;;;;19.40;99.90;;;;;;5041685;28;20350;-81
2022/09/07 10:44:56;;;;;;;;;;;19.40;99.90;;;;;;5042436;28;19925;-81
2022/09/07 10:57:29;;;;;;;;;;;19.50;99.90;;;;;;6066584;23;19943;-81
2022/09/07 11:11:09;;;;;;;;;;;19.60;99.90;;;;;;4981273;28;19990;-81
2022/09/07 11:13:39;;;;;;;;;;;19.60;99.90;;;;;;4972500;28;19934;-80
2022/09/07 11:16:08;;;;;;;;;;;19.70;99.90;;;;;;4987592;28;19926;-81
2022/09/07 11:18:36;;;;;;;;;;;19.70;99.90;;;;;;5074319;28;20661;-81
2022/09/07 11:21:05;;;;;;;;;;;19.80;99.90;;;;;;5070058;28;20355;-80
2022/09/07 11:23:36;;;;;;;;;;;19.80;99.90;;;;;;5073093;28;19925;-79
2022/09/07 11:26:07;;;;;;;;;;;19.80;99.90;;;;;;5072887;28;20485;-79
2022/09/07 11:28:39;;;;;;;;;;;19.80;99.90;;;;;;5073752;28;19982;-80
2022/09/07 11:31:13;;;;;;;;;;;19.90;99.90;;;;;;5072950;28;20148;-80
2022/09/07 11:33:52;;;;;;;;;;;19.90;99.90;;;;;;5073139;28;19928;-81
2022/09/07 11:36:20;;;;;;;;;;;20.00;99.90;;;;;;5073213;28;20460;-80
2022/09/07 11:38:49;;;;;;;;;;;20.00;99.90;;;;;;5065674;28;19971;-79
2022/09/07 11:41:23;;;;;;;;;;;20.00;99.90;;;;;;5071461;28;19933;-80
2022/09/07 11:43:54;;;;;;;;;;;20.10;99.90;;;;;;5073474;28;19929;-79
2022/09/07 11:46:26;;;;;;;;;;;20.00;99.90;;;;;;5069773;28;19972;-80
2022/09/07 11:48:54;;;;;;;;;;;20.10;99.90;;;;;;5071855;28;19924;-80
2022/09/07 11:51:23;;;;;;;;;;;20.10;99.90;;;;;;5069509;28;19970;-79
2022/09/07 11:53:52;;;;;;;;;;;20.10;99.90;;;;;;5068477;28;19998;-79
2022/09/07 11:56:22;;;;;;;;;;;20.10;99.90;;;;;;5052186;28;20344;-79
2022/09/07 11:58:58;;;;;;;;;;;20.20;99.90;;;;;;5051872;28;20012;-80
2022/09/07 12:01:32;;;;;;;;;;;20.20;99.90;;;;;;5069394;28;19933;-80
2022/09/07 12:04:11;;;;;;;;;;;20.30;99.90;;;;;;5057664;28;19931;-80
2022/09/07 12:06:47;;;;;;;;;;;20.30;99.90;;;;;;5070552;28;19996;-79
2022/09/07 12:09:19;;;;;;;;;;;20.40;99.90;;;;;;5066118;28;19925;-80
2022/09/07 12:11:58;;;;;;;;;;;20.40;99.90;;;;;;5065639;28;19940;-80
2022/09/07 12:14:31;;;;;;;;;;;20.40;99.90;;;;;;5073682;28;19967;-80
2022/09/07 12:17:11;;;;;;;;;;;20.50;99.90;;;;;;5072596;28;20433;-80
2022/09/07 12:19:38;;;;;;;;;;;20.50;99.90;;;;;;5074084;28;19947;-81
2022/09/07 12:22:18;;;;;;;;;;;20.60;99.90;;;;;;5075377;28;20008;-80
2022/09/07 12:24:45;;;;;;;;;;;20.60;99.90;;;;;;5069157;28;19940;-80
2022/09/07 12:27:31;;;;;;;;;;;20.70;99.90;;;;;;5067950;28;19935;-80
2022/09/07 12:30:18;;;;;;;;;;;20.70;99.90;;;;;;5073227;28;20472;-81
2022/09/07 12:33:19;;;;;;;;;;;20.70;99.90;;;;;;5078562;28;19929;-79
2022/09/07 12:35:45;;;;;;;;;;;20.70;99.90;;;;;;5075480;28;19936;-80
2022/09/07 12:38:31;;;;;;;;;;;20.80;99.90;;;;;;5080985;28;19956;-80
2022/09/07 12:40:59;;;;;;;;;;;20.80;99.90;;;;;;5060738;28;19935;-80
2022/09/07 12:43:33;;;;;;;;;;;20.80;99.90;;;;;;5082102;28;19954;-80
2022/09/07 12:46:00;;;;;;;;;;;20.90;99.90;;;;;;5077911;28;19970;-79
2022/09/07 12:48:37;;;;;;;;;;;20.90;99.90;;;;;;5077515;28;20016;-81
2022/09/07 12:51:07;;;;;;;;;;;20.90;99.90;;;;;;5078633;28;19928;-81
2022/09/07 12:53:39;;;;;;;;;;;21.00;99.90;;;;;;5063227;28;20361;-80
2022/09/07 12:56:21;;;;;;;;;;;21.00;99.90;;;;;;5059421;28;19924;-80
2022/09/07 12:58:59;;;;;;;;;;;21.00;99.90;;;;;;5067939;28;19924;-80
2022/09/07 13:01:30;;;;;;;;;;;21.10;99.90;;;;;;5072380;28;19924;-80
2022/09/07 13:04:15;;;;;;;;;;;21.10;99.90;;;;;;5079216;28;20018;-80
2022/09/07 13:06:53;;;;;;;;;;;21.20;99.90;;;;;;5055034;28;19947;-81
2022/09/07 13:09:28;;;;;;;;;;;21.20;99.90;;;;;;5065115;28;19974;-81
2022/09/07 13:11:55;;;;;;;;;;;21.20;99.90;;;;;;5061055;28;20883;-81
2022/09/07 13:14:25;;;;;;;;;;;21.30;99.90;;;;;;5080344;28;19925;-81
2022/09/07 13:17:07;;;;;;;;;;;21.30;99.90;;;;;;5075907;28;19932;-81
2022/09/07 13:19:52;;;;;;;;;;;21.30;99.90;;;;;;5075912;28;20283;-80
2022/09/07 13:22:38;;;;;;;;;;;21.40;99.90;;;;;;5078820;28;19936;-80
2022/09/07 13:25:30;;;;;;;;;;;21.40;99.90;;;;;;5077633;28;19935;-80
2022/09/07 13:27:57;;;;;;;;;;;21.50;99.90;;;;;;5076598;28;19936;-80
2022/09/07 13:30:45;;;;;;;;;;;21.50;99.90;;;;;;5079254;28;19952;-80
2022/09/07 13:33:26;;;;;;;;;;;21.60;99.90;;;;;;5057511;28;19935;-80
2022/09/07 13:35:54;;;;;;;;;;;21.60;99.90;;;;;;5053454;28;19956;-80
2022/09/07 13:38:21;;;;;;;;;;;21.60;99.90;;;;;;5071987;28;19932;-81
2022/09/07 13:40:51;;;;;;;;;;;21.70;99.90;;;;;;5071762;28;19933;-83
2022/09/07 13:43:19;;;;;;;;;;;21.70;99.90;;;;;;5056078;28;19995;-81
2022/09/07 13:45:55;;;;;;;;;;;21.70;99.90;;;;;;5070628;28;19932;-81
2022/09/07 13:48:25;;;;;;;;;;;21.90;99.90;;;;;;5061946;28;20011;-81
2022/09/07 13:50:56;;;;;;;;;;;21.90;99.90;;;;;;5078346;28;19990;-81
2022/09/07 13:53:30;;;;;;;;;;;21.90;99.90;;;;;;5058736;28;20943;-82
2022/09/07 13:56:03;;;;;;;;;;;22.00;99.90;;;;;;5075426;28;19932;-81
2022/09/07 13:58:34;;;;;;;;;;;22.00;99.90;;;;;;5066803;28;19939;-79
2022/09/07 14:01:02;;;;;;;;;;;22.10;99.90;;;;;;5077931;28;19988;-83
2022/09/07 14:03:36;;;;;;;;;;;22.10;99.90;;;;;;5070230;28;20494;-81
2022/09/07 14:06:16;;;;;;;;;;;22.10;99.90;;;;;;5075339;28;20035;-81
2022/09/07 14:08:47;;;;;;;;;;;22.20;99.90;;;;;;5074658;28;19925;-83
2022/09/07 14:11:21;;;;;;;;;;;22.20;99.90;;;;;;5066899;28;19928;-81
2022/09/07 14:14:03;;;;;;;;;;;22.30;99.90;;;;;;5071748;28;19939;-79
2022/09/07 14:16:30;;;;;;;;;;;22.30;99.90;;;;;;5074810;28;20184;-83
2022/09/07 14:18:59;;;;;;;;;;;22.30;99.90;;;;;;5054951;28;19995;-80
2022/09/07 14:21:26;;;;;;;;;;;22.30;99.90;;;;;;5073916;28;19924;-83
2022/09/07 14:23:53;;;;;;;;;;;22.40;99.90;;;;;;5076889;28;20022;-78
2022/09/07 14:26:22;;;;;;;;;;;22.40;99.90;;;;;;5071961;28;19924;-80
2022/09/07 14:28:52;;;;;;;;;;;22.40;99.90;;;;;;5073957;28;19924;-81
2022/09/07 14:31:20;;;;;;;;;;;22.40;99.90;;;;;;5075019;28;22020;-81
2022/09/07 14:33:50;;;;;;;;;;;22.50;99.90;;;;;;5057138;28;20433;-82
2022/09/07 14:36:17;;;;;;;;;;;22.50;99.90;;;;;;5075038;28;19924;-80
2022/09/07 14:38:45;;;;;;;;;;;22.50;99.90;;;;;;5051341;28;19982;-81
2022/09/07 14:41:14;;;;;;;;;;;22.50;99.90;;;;;;5073520;28;20402;-82
2022/09/07 14:43:51;;;;;;;;;;;22.60;99.90;;;;;;5077601;28;19924;-81
2022/09/07 14:46:23;;;;;;;;;;;22.60;99.90;;;;;;5071764;28;19925;-81
2022/09/07 14:48:53;;;;;;;;;;;22.60;99.90;;;;;;5074205;28;20390;-82
2022/09/07 14:51:21;;;;;;;;;;;22.70;99.90;;;;;;5056645;28;19931;-82
2022/09/07 14:53:49;;;;;;;;;;;22.70;99.90;;;;;;5074386;28;20358;-82
2022/09/07 14:56:19;;;;;;;;;;;22.80;99.90;;;;;;5070212;28;19933;-82
2022/09/07 14:58:46;;;;;;;;;;;22.80;99.90;;;;;;5069372;28;19978;-81
2022/09/07 15:01:19;;;;;;;;;;;22.80;99.90;;;;;;5052937;28;19933;-83
2022/09/07 15:03:54;;;;;;;;;;;22.90;99.90;;;;;;5071129;28;19936;-83
2022/09/07 15:06:31;;;;;;;;;;;22.90;99.90;;;;;;5058634;28;20274;-83
2022/09/07 15:08:58;;;;;;;;;;;22.90;99.90;;;;;;5069686;28;19928;-81
2022/09/07 15:11:26;;;;;;;;;;;22.90;99.90;;;;;;5075875;28;19908;-81
2022/09/07 15:13:54;;;;;;;;;;;22.90;99.90;;;;;;5068884;28;19925;-82
2022/09/07 15:16:23;;;;;;;;;;;23.00;99.90;;;;;;5057085;28;19956;-82
2022/09/07 15:18:57;;;;;;;;;;;23.00;99.90;;;;;;5069386;28;20007;-81
2022/09/07 15:21:24;;;;;;;;;;;23.10;99.90;;;;;;5075268;28;19924;-81
2022/09/07 15:23:52;;;;;;;;;;;23.10;99.90;;;;;;5066074;28;20429;-82
2022/09/07 15:26:19;;;;;;;;;;;23.10;99.90;;;;;;5050336;28;19929;-81
2022/09/07 15:28:46;;;;;;;;;;;23.10;99.90;;;;;;5073093;28;19931;-81
2022/09/07 15:31:14;;;;;;;;;;;23.20;99.90;;;;;;5076777;28;19936;-81
2022/09/07 15:33:44;;;;;;;;;;;23.20;99.90;;;;;;5074172;28;19996;-82
2022/09/07 15:36:12;;;;;;;;;;;23.20;99.90;;;;;;5076747;28;19932;-82
2022/09/07 15:38:38;;;;;;;;;;;23.20;99.90;;;;;;5072485;28;19982;-81
2022/09/07 15:41:06;;;;;;;;;;;;;;;;;;5077395;28;19931;-81
2022/09/07 15:43:34;;;;;;;;;;;23.30;99.90;;;;;;5048722;28;19999;-81
2022/09/07 15:46:01;;;;;;;;;;;23.30;99.90;;;;;;5058246;28;20015;-81
2022/09/07 15:48:28;;;;;;;;;;;23.30;99.90;;;;;;5048769;28;19951;-85
2022/09/07 15:51:06;;;;;;;;;;;23.30;99.90;;;;;;5069658;28;19972;-83
2022/09/07 15:53:34;;;;;;;;;;;23.30;99.90;;;;;;5065402;28;19931;-86
2022/09/07 15:56:02;;;;;;;;;;;23.40;99.90;;;;;;5054364;28;19925;-83
2022/09/07 15:58:29;;;;;;;;;;;23.40;98.00;;;;;;5063235;28;19924;-86
2022/09/07 16:00:59;;;;;;;;;;;23.40;96.60;;;;;;5057481;28;20360;-86
2022/09/07 16:03:26;;;;;;;;;;;23.40;97.10;;;;;;5062906;28;20252;-86
2022/09/07 16:05:52;;;;;;;;;;;23.40;96.80;;;;;;5060086;28;19931;-88
2022/09/07 16:08:21;;;;;;;;;;;23.40;96.50;;;;;;5057866;28;19990;-77
2022/09/07 16:10:47;;;;;;;;;;;23.40;96.10;;;;;;5060458;28;19925;-83